createdAt,value
2023-02-12T00:01:25.997Z,24.67
2023-02-12T00:03:53.513Z,22.85
2023-02-12T00:06:21.112Z,25.33
2023-02-12T00:08:52.370Z,22.65
2023-02-12T00:11:25.374Z,21.67
2023-02-12T00:13:53.621Z,21.13
2023-02-12T00:16:26.386Z,22.38
2023-02-12T00:18:56.689Z,21.92
2023-02-12T00:21:25.103Z,22.58
2023-02-12T00:23:52.387Z,22.83
2023-02-12T00:26:22.888Z,21.15
2023-02-12T00:28:52.360Z,21.52
2023-02-12T00:31:27.453Z,22.63
2023-02-12T00:33:59.317Z,23.98
2023-02-12T00:36:31.084Z,23.20
2023-02-12T00:39:00.131Z,22.42
2023-02-12T00:41:27.970Z,23.80
2023-02-12T00:43:55.658Z,24.20
2023-02-12T00:46:23.594Z,22.30
2023-02-12T00:48:50.921Z,23.65
2023-02-12T00:51:20.769Z,22.35
2023-02-12T00:53:47.914Z,22.95
2023-02-12T00:56:15.149Z,22.92
2023-02-12T00:58:42.302Z,24.58
2023-02-12T01:01:09.689Z,21.77
2023-02-12T01:03:37.384Z,20.95
2023-02-12T01:06:06.067Z,23.65
2023-02-12T01:08:33.373Z,22.77
2023-02-12T01:11:04.659Z,22.40
2023-02-12T01:13:34.207Z,22.55
2023-02-12T01:16:09.184Z,21.77
2023-02-12T01:18:38.235Z,23.48
2023-02-12T01:21:23.636Z,23.08
2023-02-12T01:23:51.183Z,21.83
2023-02-12T01:26:21.032Z,21.75
2023-02-12T01:28:56.376Z,23.20
2023-02-12T01:31:28.721Z,22.92
2023-02-12T01:33:59.954Z,24.40
2023-02-12T01:36:30.075Z,21.63
2023-02-12T01:39:02.771Z,24.92
2023-02-12T01:41:42.361Z,21.90
2023-02-12T01:44:19.538Z,24.35
2023-02-12T01:46:50.601Z,21.95
2023-02-12T01:49:30.671Z,22.92
2023-02-12T01:52:20.206Z,21.20
2023-02-12T01:54:49.786Z,22.35
2023-02-12T01:57:18.209Z,22.88
2023-02-12T01:59:50.319Z,21.23
2023-02-12T02:02:17.792Z,21.42
2023-02-12T02:04:51.819Z,20.75
2023-02-12T02:07:19.393Z,22.08
2023-02-12T02:09:46.957Z,22.17
2023-02-12T02:12:33.032Z,23.02
2023-02-12T02:15:02.290Z,22.05
2023-02-12T02:18:19.017Z,22.75
2023-02-12T02:21:53.496Z,21.58
2023-02-12T02:25:02.001Z,22.02
2023-02-12T02:27:59.526Z,20.95
2023-02-12T02:31:18.432Z,23.02
2023-02-12T02:34:18.096Z,20.38
2023-02-12T02:37:14.628Z,22.73
2023-02-12T02:40:14.977Z,21.10
2023-02-12T02:43:09.818Z,23.67
2023-02-12T02:46:07.063Z,22.88
2023-02-12T02:48:47.022Z,22.52
2023-02-12T02:51:25.549Z,21.58
2023-02-12T02:54:05.722Z,23.73
2023-02-12T02:56:38.513Z,22.70
2023-02-12T02:59:13.723Z,22.52
2023-02-12T03:01:55.991Z,23.25
2023-02-12T03:04:42.595Z,23.63
2023-02-12T03:07:42.221Z,24.08
2023-02-12T03:10:19.049Z,23.20
2023-02-12T03:13:14.749Z,22.83
2023-02-12T03:16:19.014Z,23.08
2023-02-12T03:19:05.331Z,22.70
2023-02-12T03:21:55.462Z,23.23
2023-02-12T03:24:36.292Z,21.77
2023-02-12T03:27:27.673Z,22.90
2023-02-12T03:29:55.575Z,26.15
2023-02-12T03:32:58.454Z,22.98
2023-02-12T03:35:43.372Z,23.92
2023-02-12T03:38:34.166Z,25.17
2023-02-12T03:41:35.698Z,25.65
2023-02-12T03:44:23.012Z,24.45
2023-02-12T03:47:08.146Z,23.08
2023-02-12T03:50:11.122Z,24.27
2023-02-12T03:52:38.366Z,22.15
2023-02-12T03:55:06.821Z,22.33
2023-02-12T03:57:44.653Z,21.83
2023-02-12T04:00:19.652Z,24.55
2023-02-12T04:02:48.883Z,26.13
2023-02-12T04:05:22.420Z,25.80
2023-02-12T04:07:51.707Z,23.02
2023-02-12T04:10:27.815Z,25.30
2023-02-12T04:13:43.348Z,23.48
2023-02-12T04:16:50.045Z,25.02
2023-02-12T04:20:00.532Z,19.67
2023-02-12T04:23:31.006Z,22.20
2023-02-12T04:26:35.932Z,24.90
2023-02-12T04:29:31.547Z,22.83
2023-02-12T04:32:17.590Z,23.52
2023-02-12T04:35:18.645Z,20.90
2023-02-12T04:38:23.252Z,22.45
2023-02-12T04:40:51.619Z,22.85
2023-02-12T04:43:36.788Z,23.70
2023-02-12T04:46:07.781Z,22.45
2023-02-12T04:48:49.374Z,21.92
2023-02-12T04:51:16.513Z,21.02
2023-02-12T04:53:43.670Z,21.45
2023-02-12T04:56:14.396Z,21.42
2023-02-12T04:58:42.574Z,22.40
2023-02-12T05:01:10.617Z,22.83
2023-02-12T05:03:38.282Z,20.73
2023-02-12T05:06:08.329Z,23.33
2023-02-12T05:08:36.114Z,20.27
2023-02-12T05:11:09.321Z,19.33
2023-02-12T05:13:38.009Z,20.50
2023-02-12T05:18:35.956Z,20.00
2023-02-12T05:21:05.100Z,21.55
2023-02-12T05:23:37.584Z,21.05
2023-02-12T05:26:17.518Z,22.20
2023-02-12T05:28:45.430Z,22.50
2023-02-12T05:31:20.013Z,24.08
2023-02-12T05:33:50.438Z,19.83
2023-02-12T05:36:22.989Z,21.83
2023-02-12T05:38:51.616Z,19.77
2023-02-12T05:41:24.974Z,22.00
2023-02-12T05:43:53.521Z,18.92
2023-02-12T05:46:22.126Z,19.15
2023-02-12T05:48:49.453Z,20.02
2023-02-12T05:51:22.925Z,21.90
2023-02-12T05:53:55.694Z,21.02
2023-02-12T05:56:33.270Z,20.65
2023-02-12T05:59:08.732Z,20.60
2023-02-12T06:01:40.807Z,20.42
2023-02-12T06:04:18.451Z,21.10
2023-02-12T06:06:46.830Z,19.42
2023-02-12T06:09:14.677Z,21.20
2023-02-12T06:11:42.341Z,22.92
2023-02-12T06:14:15.627Z,20.20
2023-02-12T06:16:51.807Z,19.52
2023-02-12T06:19:20.193Z,20.92
2023-02-12T06:21:47.673Z,18.88
2023-02-12T06:24:17.006Z,19.77
2023-02-12T06:26:44.721Z,20.40
2023-02-12T06:29:13.328Z,19.63
2023-02-12T06:31:41.017Z,20.85
2023-02-12T06:34:11.960Z,19.45
2023-02-12T06:36:44.560Z,20.98
2023-02-12T06:39:15.130Z,20.85
2023-02-12T06:41:43.995Z,19.15
2023-02-12T06:44:13.060Z,21.17
2023-02-12T06:46:40.318Z,18.77
2023-02-12T06:49:07.709Z,19.75
2023-02-12T06:51:36.360Z,21.00
2023-02-12T06:54:03.693Z,23.42
2023-02-12T06:56:30.826Z,20.48
2023-02-12T06:59:01.157Z,20.63
2023-02-12T07:01:30.292Z,21.25
2023-02-12T07:04:03.234Z,22.83
2023-02-12T07:06:34.655Z,21.95
2023-02-12T07:09:03.693Z,22.20
2023-02-12T07:11:37.948Z,20.08
2023-02-12T07:14:07.152Z,22.50
2023-02-12T07:19:01.887Z,19.25
2023-02-12T07:21:29.072Z,22.52
2023-02-12T07:23:56.345Z,22.27
2023-02-12T07:26:23.952Z,23.73
2023-02-12T07:28:51.988Z,28.20
2023-02-12T07:31:24.771Z,25.15
2023-02-12T07:33:58.207Z,29.98
2023-02-12T07:36:29.380Z,23.00
2023-02-12T07:38:58.541Z,21.45
2023-02-12T07:41:34.756Z,19.65
2023-02-12T07:44:10.493Z,17.65
2023-02-12T07:46:48.578Z,16.88
2023-02-12T07:49:22.367Z,16.67
2023-02-12T07:51:50.399Z,17.80
2023-02-12T07:54:18.043Z,17.38
2023-02-12T07:56:46.885Z,18.15
2023-02-12T07:59:18.340Z,18.30
2023-02-12T08:01:51.660Z,18.33
2023-02-12T08:04:23.315Z,19.00
2023-02-12T08:06:55.007Z,19.17
2023-02-12T08:09:27.615Z,18.02
2023-02-12T08:11:55.701Z,17.55
2023-02-12T08:14:23.443Z,17.98
2023-02-12T08:16:51.715Z,17.92
2023-02-12T08:19:23.967Z,18.65
2023-02-12T08:21:55.480Z,18.65
2023-02-12T08:24:24.846Z,19.80
2023-02-12T08:26:53.702Z,19.25
2023-02-12T08:29:29.710Z,19.85
2023-02-12T08:32:03.423Z,21.20
2023-02-12T08:34:35.205Z,21.00
2023-02-12T08:37:04.828Z,18.50
2023-02-12T08:39:31.980Z,18.75
2023-02-12T08:42:01.645Z,19.23
2023-02-12T08:44:29.355Z,17.85
2023-02-12T08:46:56.599Z,18.13
2023-02-12T08:49:28.447Z,18.67
2023-02-12T08:51:58.336Z,18.60
2023-02-12T08:54:30.022Z,20.02
2023-02-12T08:57:00.793Z,20.45
2023-02-12T08:59:28.908Z,19.77
2023-02-12T09:01:56.108Z,21.73
2023-02-12T09:04:27.695Z,20.45
2023-02-12T09:06:56.215Z,21.52
2023-02-12T09:11:50.902Z,21.80
2023-02-12T09:14:26.004Z,19.63
2023-02-12T09:16:54.484Z,21.73
2023-02-12T09:19:21.881Z,22.60
2023-02-12T09:21:56.320Z,20.20
2023-02-12T09:24:27.414Z,22.95
2023-02-12T09:26:54.823Z,21.63
2023-02-12T09:29:22.235Z,20.73
2023-02-12T09:31:49.570Z,21.02
2023-02-12T09:34:16.820Z,20.65
2023-02-12T09:36:44.028Z,20.08
2023-02-12T09:39:11.325Z,22.10
2023-02-12T09:42:32.325Z,25.60
2023-02-12T09:45:17.065Z,26.98
2023-02-12T09:48:13.746Z,24.75
2023-02-12T09:50:57.810Z,24.48
2023-02-12T09:53:31.491Z,25.00
2023-02-12T09:55:59.421Z,25.50
2023-02-12T09:58:53.621Z,26.05
2023-02-12T10:01:23.017Z,26.77
2023-02-12T10:03:52.353Z,25.67
2023-02-12T10:06:26.963Z,26.27
2023-02-12T10:13:19.836Z,24.98
2023-02-12T10:15:52.363Z,24.20
2023-02-12T10:19:21.582Z,26.52
2023-02-12T10:22:51.374Z,22.98
2023-02-12T10:25:53.026Z,23.70
2023-02-12T10:28:34.960Z,22.10
2023-02-12T10:31:37.168Z,23.90
2023-02-12T10:34:32.362Z,25.48
2023-02-12T10:37:32.489Z,25.50
2023-02-12T10:40:20.917Z,24.55
2023-02-12T10:42:53.465Z,22.67
2023-02-12T10:45:33.915Z,25.73
2023-02-12T10:48:22.084Z,27.75
2023-02-12T10:51:56.814Z,26.65
2023-02-12T10:54:45.546Z,28.20
2023-02-12T10:57:25.294Z,28.48
2023-02-12T11:00:23.703Z,28.83
2023-02-12T11:03:12.903Z,27.27
2023-02-12T11:05:44.269Z,29.17
2023-02-12T11:08:37.237Z,30.02
2023-02-12T11:11:23.120Z,28.13
2023-02-12T11:14:18.588Z,29.30
2023-02-12T11:16:59.958Z,28.98
2023-02-12T11:19:34.957Z,29.98
2023-02-12T11:22:18.516Z,29.95
2023-02-12T11:24:49.524Z,29.20
2023-02-12T11:27:16.606Z,27.25
2023-02-12T11:29:51.149Z,30.60
2023-02-12T11:32:20.518Z,30.25
2023-02-12T11:35:15.388Z,31.42
2023-02-12T11:37:45.308Z,28.65
2023-02-12T11:40:25.678Z,29.17
2023-02-12T11:43:06.706Z,29.45
2023-02-12T11:45:47.512Z,28.95
2023-02-12T11:48:26.274Z,27.90
2023-02-12T11:50:57.640Z,26.40
2023-02-12T11:53:33.333Z,27.52
2023-02-12T11:56:12.324Z,25.15
2023-02-12T11:58:40.759Z,25.05
2023-02-12T12:01:30.491Z,24.35
2023-02-12T12:04:20.530Z,25.27
2023-02-12T12:07:05.474Z,27.20
2023-02-12T12:09:50.458Z,24.77
2023-02-12T12:12:30.911Z,24.73
2023-02-12T12:19:10.033Z,23.70
2023-02-12T12:22:22.636Z,23.02
2023-02-12T12:25:14.929Z,22.23
2023-02-12T12:28:02.881Z,22.85
2023-02-12T12:31:12.462Z,21.55
2023-02-12T12:34:17.043Z,21.60
2023-02-12T12:37:20.553Z,23.45
2023-02-12T12:40:21.129Z,23.13
2023-02-12T12:43:22.283Z,22.33
2023-02-12T12:46:31.484Z,20.63
2023-02-12T12:49:54.997Z,21.50
2023-02-12T12:52:51.138Z,22.60
2023-02-12T12:55:45.757Z,20.52
2023-02-12T12:58:49.408Z,20.27
2023-02-12T13:01:44.499Z,20.58
2023-02-12T13:05:19.525Z,21.45
2023-02-12T13:08:12.520Z,18.90
2023-02-12T13:11:06.546Z,19.17
2023-02-12T13:13:41.044Z,17.70
2023-02-12T13:16:35.511Z,17.50
2023-02-12T13:19:48.850Z,18.17
2023-02-12T13:22:45.405Z,18.90
2023-02-12T13:25:36.433Z,19.13
2023-02-12T13:28:09.986Z,18.85
2023-02-12T13:30:45.407Z,17.13
2023-02-12T13:33:36.779Z,17.00
2023-02-12T13:36:08.060Z,16.83
2023-02-12T13:38:43.443Z,17.77
2023-02-12T13:41:12.621Z,17.42
2023-02-12T13:43:53.518Z,16.13
2023-02-12T13:46:51.421Z,14.43
2023-02-12T13:50:17.456Z,16.10
2023-02-12T13:53:42.701Z,16.83
2023-02-12T13:56:54.026Z,15.93
2023-02-12T13:59:34.112Z,15.02
2023-02-12T14:02:05.829Z,12.77
2023-02-12T14:05:02.550Z,12.18
2023-02-12T14:07:48.259Z,12.75
2023-02-12T14:10:42.347Z,15.57
2023-02-12T14:13:19.704Z,14.50
2023-02-12T14:15:55.617Z,13.82
2023-02-12T14:18:35.748Z,13.90
2023-02-12T14:21:12.195Z,15.45
2023-02-12T14:23:42.221Z,15.55
2023-02-12T14:26:15.466Z,15.82
2023-02-12T14:29:04.978Z,17.73
2023-02-12T14:31:38.578Z,17.55
2023-02-12T14:34:05.703Z,16.02
2023-02-12T14:36:32.689Z,16.95
2023-02-12T14:39:05.097Z,15.68
2023-02-12T14:41:41.449Z,17.33
2023-02-12T14:44:58.803Z,16.85
2023-02-12T14:47:28.981Z,16.73
2023-02-12T14:50:11.937Z,17.80
2023-02-12T14:52:54.064Z,16.70
2023-02-12T14:55:33.731Z,17.63
2023-02-12T14:58:06.910Z,16.30
2023-02-12T15:00:41.775Z,17.75
2023-02-12T15:03:18.896Z,16.67
2023-02-12T15:06:18.768Z,16.45
2023-02-12T15:10:02.723Z,18.05
2023-02-12T15:13:01.756Z,15.98
2023-02-12T15:15:57.032Z,18.40
2023-02-12T15:18:58.356Z,18.20
2023-02-12T15:21:31.764Z,20.38
2023-02-12T15:24:10.848Z,21.20
2023-02-12T15:26:52.096Z,20.98
2023-02-12T15:29:28.571Z,21.30
2023-02-12T15:32:05.069Z,20.38
2023-02-12T15:34:39.976Z,20.17
2023-02-12T15:37:09.613Z,20.92
2023-02-12T15:39:47.994Z,20.27
2023-02-12T15:42:42.866Z,19.05
2023-02-12T15:45:19.946Z,19.25
2023-02-12T15:48:09.584Z,19.45
2023-02-12T15:50:53.499Z,18.83
2023-02-12T15:53:24.317Z,17.75
2023-02-12T15:55:51.971Z,18.98
2023-02-12T15:59:03.259Z,19.20
2023-02-12T16:01:35.156Z,19.20
2023-02-12T16:04:08.481Z,17.67
2023-02-12T16:06:36.990Z,17.05
2023-02-12T16:09:15.777Z,16.63
2023-02-12T16:11:46.907Z,16.35
2023-02-12T16:14:43.296Z,17.27
2023-02-12T16:17:32.366Z,15.52
2023-02-12T16:20:19.834Z,17.17
2023-02-12T16:22:51.256Z,16.40
2023-02-12T16:25:33.649Z,17.73
2023-02-12T16:28:18.718Z,17.17
2023-02-12T16:30:48.276Z,16.75
2023-02-12T16:33:40.543Z,17.23
2023-02-12T16:36:15.988Z,16.92
2023-02-12T16:38:53.262Z,17.38
2023-02-12T16:41:30.650Z,19.67
2023-02-12T16:44:00.500Z,19.10
2023-02-12T16:46:31.744Z,18.08
2023-02-12T16:49:01.452Z,18.25
2023-02-12T16:51:36.200Z,24.85
2023-02-12T16:54:26.071Z,18.17
2023-02-12T16:56:53.215Z,18.48
2023-02-12T16:59:20.557Z,17.45
2023-02-12T17:02:12.784Z,18.40
2023-02-12T17:04:40.834Z,18.45
2023-02-12T17:07:29.204Z,19.90
2023-02-12T17:09:56.603Z,19.10
2023-02-12T17:12:24.249Z,20.35
2023-02-12T17:14:51.476Z,20.17
2023-02-12T17:17:18.995Z,20.20
2023-02-12T17:19:46.310Z,21.73
2023-02-12T17:22:26.040Z,21.40
2023-02-12T17:24:53.343Z,19.15
2023-02-12T17:27:21.061Z,20.10
2023-02-12T17:29:48.377Z,21.30
2023-02-12T17:32:16.239Z,20.58
2023-02-12T17:34:48.923Z,22.75
2023-02-12T17:37:17.471Z,22.05
2023-02-12T17:39:44.809Z,22.42
2023-02-12T17:42:12.160Z,21.52
2023-02-12T17:44:40.118Z,21.77
2023-02-12T17:47:07.251Z,22.73
2023-02-12T17:49:35.474Z,27.30
2023-02-12T17:52:04.782Z,23.27
2023-02-12T17:54:33.666Z,21.83
2023-02-12T17:57:00.862Z,22.58
2023-02-12T17:59:28.104Z,23.00
2023-02-12T18:01:55.818Z,22.50
2023-02-12T18:04:23.068Z,22.33
2023-02-12T18:06:50.278Z,23.15
2023-02-12T18:09:17.389Z,21.60
2023-02-12T18:11:44.619Z,23.10
2023-02-12T18:14:12.785Z,22.88
2023-02-12T18:16:41.056Z,22.15
2023-02-12T18:19:08.374Z,23.02
2023-02-12T18:21:35.619Z,24.63
2023-02-12T18:24:03.595Z,23.08
2023-02-12T18:26:34.694Z,23.40
2023-02-12T18:29:02.017Z,23.55
2023-02-12T18:31:29.944Z,23.92
2023-02-12T18:33:57.350Z,23.85
2023-02-12T18:36:24.702Z,24.08
2023-02-12T18:38:52.937Z,23.92
2023-02-12T18:41:28.273Z,24.90
2023-02-12T18:43:58.685Z,23.27
2023-02-12T18:46:30.521Z,25.02
2023-02-12T18:48:59.183Z,24.33
2023-02-12T18:51:30.938Z,23.98
2023-02-12T18:54:07.612Z,24.50
2023-02-12T18:56:41.023Z,26.38
2023-02-12T18:59:11.520Z,27.15
2023-02-12T19:01:38.978Z,24.95
2023-02-12T19:04:12.700Z,25.60
2023-02-12T19:06:48.967Z,24.48
2023-02-12T19:09:20.222Z,26.02
2023-02-12T19:11:50.402Z,26.02
2023-02-12T19:14:20.948Z,26.52
2023-02-12T19:16:48.966Z,25.55
2023-02-12T19:19:17.659Z,26.33
2023-02-12T19:21:44.865Z,25.88
2023-02-12T19:24:15.960Z,24.75
2023-02-12T19:26:46.743Z,25.38
2023-02-12T19:29:14.138Z,25.75
2023-02-12T19:31:46.252Z,24.55
2023-02-12T19:34:19.571Z,25.90
2023-02-12T19:36:49.432Z,25.33
2023-02-12T19:39:24.116Z,24.77
2023-02-12T19:41:52.658Z,25.63
2023-02-12T19:44:24.179Z,24.80
2023-02-12T19:46:52.883Z,26.55
2023-02-12T19:49:27.557Z,26.23
2023-02-12T19:54:24.185Z,24.27
2023-02-12T19:56:53.758Z,25.42
2023-02-12T19:59:24.736Z,26.25
2023-02-12T20:01:53.353Z,24.30
2023-02-12T20:04:24.357Z,25.23
2023-02-12T20:06:52.621Z,26.45
2023-02-12T20:09:22.422Z,24.25
2023-02-12T20:11:49.698Z,26.73
2023-02-12T20:14:17.622Z,27.15
2023-02-12T20:16:46.675Z,25.83
2023-02-12T20:19:23.252Z,28.15
2023-02-12T20:21:56.512Z,25.35
2023-02-12T20:24:29.722Z,25.33
2023-02-12T20:27:00.345Z,25.95
2023-02-12T20:29:28.685Z,25.80
2023-02-12T20:31:56.427Z,24.48
2023-02-12T20:34:23.716Z,24.35
2023-02-12T20:36:51.039Z,22.95
2023-02-12T20:39:20.800Z,24.38
2023-02-12T20:41:49.126Z,25.08
2023-02-12T20:44:21.345Z,24.65
2023-02-12T20:46:55.704Z,25.00
2023-02-12T20:49:25.590Z,25.20
2023-02-12T20:51:53.153Z,27.15
2023-02-12T20:54:20.969Z,23.83
2023-02-12T20:56:50.593Z,26.08
2023-02-12T20:59:18.778Z,23.58
2023-02-12T21:01:46.784Z,25.10
2023-02-12T21:04:17.966Z,22.45
2023-02-12T21:06:47.309Z,22.58
2023-02-12T21:09:15.355Z,22.08
2023-02-12T21:11:45.468Z,23.75
2023-02-12T21:14:23.889Z,21.60
2023-02-12T21:16:54.845Z,21.75
2023-02-12T21:19:24.640Z,20.67
2023-02-12T21:21:52.276Z,23.33
2023-02-12T21:24:24.516Z,23.75
2023-02-12T21:26:54.955Z,24.27
2023-02-12T21:29:23.270Z,21.98
2023-02-12T21:31:51.550Z,20.42
2023-02-12T21:34:23.416Z,21.02
2023-02-12T21:36:54.718Z,20.98
2023-02-12T21:39:27.242Z,22.30
2023-02-12T21:42:00.883Z,20.80
2023-02-12T21:44:28.997Z,22.33
2023-02-12T21:46:57.098Z,21.73
2023-02-12T21:49:25.122Z,21.52
2023-02-12T21:52:06.438Z,22.33
2023-02-12T21:54:33.926Z,21.15
2023-02-12T21:57:01.235Z,22.25
2023-02-12T21:59:31.576Z,21.42
2023-02-12T22:02:00.651Z,20.60
2023-02-12T22:06:57.899Z,21.08
2023-02-12T22:09:25.361Z,21.38
2023-02-12T22:14:22.232Z,21.17
2023-02-12T22:16:50.436Z,21.67
2023-02-12T22:19:17.810Z,20.90
2023-02-12T22:21:45.431Z,18.67
2023-02-12T22:24:16.012Z,17.88
2023-02-12T22:26:44.826Z,19.85
2023-02-12T22:29:15.779Z,19.20
2023-02-12T22:31:46.552Z,18.85
2023-02-12T22:34:19.111Z,21.08
2023-02-12T22:36:47.637Z,19.02
2023-02-12T22:41:43.069Z,20.48
2023-02-12T22:44:12.897Z,20.17
2023-02-12T22:46:42.957Z,20.98
2023-02-12T22:49:10.414Z,19.08
2023-02-12T22:51:39.495Z,21.17
2023-02-12T22:54:14.718Z,20.55
2023-02-12T22:56:43.067Z,21.55
2023-02-12T23:01:39.799Z,19.88
2023-02-12T23:04:07.435Z,21.58
2023-02-12T23:06:34.711Z,20.55
2023-02-12T23:09:04.936Z,22.90
2023-02-12T23:11:33.814Z,22.75
2023-02-12T23:14:02.025Z,22.13
2023-02-12T23:16:29.460Z,21.17
2023-02-12T23:19:01.858Z,21.50
2023-02-12T23:21:32.439Z,21.40
2023-02-12T23:24:00.187Z,23.25
2023-02-12T23:26:29.459Z,22.65
2023-02-12T23:28:57.453Z,22.55
2023-02-12T23:31:25.770Z,23.42
2023-02-12T23:36:20.154Z,23.08
2023-02-12T23:38:47.285Z,21.92
2023-02-12T23:41:15.025Z,22.67
2023-02-12T23:43:42.330Z,22.67
2023-02-12T23:46:09.713Z,24.33
2023-02-12T23:48:37.335Z,25.95
2023-02-12T23:51:05.301Z,23.85
2023-02-12T23:53:32.460Z,24.30
2023-02-12T23:55:59.585Z,24.15
2023-02-12T23:58:26.948Z,21.92
